Time;durP1;ratioP1;P1;durP2;ratioP2;P2;SDS_P1;SDS_P2;PMS_P1;PMS_P2;Temp;Humidity;BMP_temperature;BMP_pressure;BME280_temperature;BME280_humidity;BME280_pressure;Samples;Min_cycle;Max_cycle;Signal;HPM_P1;HPM_P2
2023/12/09 00:00:16;;;;;;;11.90;5.90;;;2.60;99.90;;;;;;2034074;28;20694;-80
2023/12/09 00:01:16;;;;;;;9.60;5.50;;;2.50;99.90;;;;;;2045417;29;20297;-79
2023/12/09 00:02:17;;;;;;;7.73;5.40;;;2.40;99.90;;;;;;2047187;29;20228;-80
2023/12/09 00:03:18;;;;;;;10.97;6.90;;;2.40;99.90;;;;;;2034603;28;20306;-80
2023/12/09 00:04:18;;;;;;;9.70;5.60;;;2.40;99.90;;;;;;2031788;28;20240;-80
2023/12/09 00:05:19;;;;;;;10.53;6.07;;;2.30;99.90;;;;;;2024087;29;20283;-79
2023/12/09 00:06:20;;;;;;;6.13;4.47;;;2.40;99.90;;;;;;2027677;28;20275;-80
2023/12/09 00:07:20;;;;;;;7.50;5.00;;;2.30;99.90;;;;;;2032516;28;20239;-80
2023/12/09 00:08:21;;;;;;;7.77;4.80;;;2.20;99.90;;;;;;2027468;29;20252;-81
2023/12/09 00:09:22;;;;;;;5.43;3.70;;;2.10;99.90;;;;;;2032441;28;20253;-84
2023/12/09 00:10:22;;;;;;;9.13;5.43;;;2.10;99.90;;;;;;2031891;28;20235;-82
2023/12/09 00:11:23;;;;;;;10.87;6.13;;;2.00;99.90;;;;;;2031963;28;20223;-81
2023/12/09 00:12:24;;;;;;;11.27;5.73;;;2.00;99.90;;;;;;2031108;28;20244;-81
2023/12/09 00:13:24;;;;;;;14.77;6.03;;;1.80;99.90;;;;;;2022994;29;20815;-81
2023/12/09 00:14:25;;;;;;;8.77;5.03;;;2.00;99.90;;;;;;2022129;29;20228;-80
2023/12/09 00:15:26;;;;;;;10.77;5.47;;;1.90;99.90;;;;;;2030909;29;20229;-80
2023/12/09 00:16:26;;;;;;;23.00;8.73;;;1.90;99.90;;;;;;2027248;28;20233;-80
2023/12/09 00:17:27;;;;;;;15.10;6.27;;;1.70;99.90;;;;;;2032962;29;20300;-80
2023/12/09 00:18:27;;;;;;;14.00;6.70;;;1.70;99.90;;;;;;2040903;29;20270;-79
2023/12/09 00:19:28;;;;;;;6.57;4.60;;;1.70;99.90;;;;;;2029630;29;20224;-81
2023/12/09 00:20:29;;;;;;;8.83;4.90;;;1.80;99.90;;;;;;2031775;28;20299;-80
2023/12/09 00:21:30;;;;;;;7.70;4.80;;;1.70;99.90;;;;;;2039611;29;20731;-81
2023/12/09 00:22:31;;;;;;;8.70;4.60;;;1.70;99.90;;;;;;2031521;29;21053;-80
2023/12/09 00:23:32;;;;;;;12.47;5.93;;;1.80;99.90;;;;;;2033343;29;20224;-81
2023/12/09 00:24:32;;;;;;;6.33;4.53;;;1.80;99.90;;;;;;2025118;29;20226;-80
2023/12/09 00:25:34;;;;;;;10.37;4.87;;;1.80;99.90;;;;;;2032291;29;20219;-80
2023/12/09 00:26:34;;;;;;;5.78;4.57;;;1.80;99.90;;;;;;2027087;28;20313;-81
2023/12/09 00:27:35;;;;;;;11.30;5.30;;;1.70;99.90;;;;;;2023036;28;20223;-81
2023/12/09 00:28:36;;;;;;;9.93;5.07;;;1.70;99.90;;;;;;2025389;28;20714;-80
2023/12/09 00:29:36;;;;;;;5.93;4.23;;;1.60;99.90;;;;;;2031387;28;20229;-80
2023/12/09 00:30:37;;;;;;;7.77;5.00;;;1.80;99.90;;;;;;2023693;28;20232;-80
2023/12/09 00:31:38;;;;;;;7.90;4.67;;;1.70;99.90;;;;;;2024281;29;20757;-79
2023/12/09 00:32:38;;;;;;;10.53;4.77;;;1.60;99.90;;;;;;2031052;29;20262;-80
2023/12/09 00:33:40;;;;;;;7.27;4.47;;;1.70;99.90;;;;;;2037754;28;20451;-82
2023/12/09 00:34:40;;;;;;;8.07;3.95;;;1.80;99.90;;;;;;2044501;28;20235;-80
2023/12/09 00:35:41;;;;;;;6.57;4.27;;;1.90;99.90;;;;;;2027290;29;20220;-81
2023/12/09 00:36:41;;;;;;;9.00;5.00;;;2.00;99.90;;;;;;2024394;29;20727;-79
2023/12/09 00:37:42;;;;;;;6.20;4.33;;;2.00;99.90;;;;;;2023690;28;20227;-80
2023/12/09 00:38:43;;;;;;;5.47;3.70;;;2.10;99.90;;;;;;2023909;28;20292;-81
2023/12/09 00:39:44;;;;;;;5.37;4.07;;;2.00;99.90;;;;;;2022636;29;20251;-81
2023/12/09 00:40:44;;;;;;;4.73;3.23;;;2.00;99.90;;;;;;2024608;28;20877;-79
2023/12/09 00:41:45;;;;;;;4.47;3.40;;;2.10;99.90;;;;;;2035235;28;20190;-79
2023/12/09 00:42:48;;;;;;;4.87;3.60;;;2.10;99.90;;;;;;2022251;28;20185;-80
2023/12/09 00:43:49;;;;;;;4.28;2.85;;;2.00;99.90;;;;;;2023125;28;20196;-80
2023/12/09 00:44:50;;;;;;;3.53;2.57;;;2.00;99.90;;;;;;2028367;28;20190;-80
2023/12/09 00:45:50;;;;;;;10.37;4.80;;;1.90;99.90;;;;;;2019236;28;20190;-81
2023/12/09 00:46:51;;;;;;;5.77;3.93;;;1.80;99.90;;;;;;2018985;29;20199;-80
2023/12/09 00:47:52;;;;;;;5.93;3.73;;;1.80;99.90;;;;;;2034692;29;20180;-81
2023/12/09 00:48:52;;;;;;;5.10;3.57;;;1.90;99.90;;;;;;2027446;29;20180;-81
2023/12/09 00:49:53;;;;;;;6.07;4.03;;;1.90;99.90;;;;;;2027853;29;20287;-81
2023/12/09 00:50:54;;;;;;;6.63;4.78;;;1.90;99.90;;;;;;2030618;29;20191;-81
2023/12/09 00:51:55;;;;;;;9.03;4.77;;;1.90;99.90;;;;;;2037834;29;20193;-81
2023/12/09 00:52:55;;;;;;;7.17;4.03;;;1.80;99.90;;;;;;2040687;29;20195;-81
2023/12/09 00:53:56;;;;;;;7.67;4.20;;;1.80;99.90;;;;;;2030924;29;20211;-80
2023/12/09 00:54:57;;;;;;;5.30;3.53;;;1.80;99.90;;;;;;2031347;29;20191;-80
2023/12/09 00:55:57;;;;;;;5.50;3.57;;;1.80;99.90;;;;;;2039033;29;20290;-82
2023/12/09 00:56:58;;;;;;;5.50;3.47;;;1.80;99.90;;;;;;2033454;29;20233;-80
2023/12/09 00:57:59;;;;;;;4.40;3.27;;;1.80;99.90;;;;;;2037659;29;20743;-78
2023/12/09 00:58:59;;;;;;;4.97;2.97;;;1.80;99.90;;;;;;2039447;29;20192;-78
2023/12/09 01:00:00;;;;;;;6.00;3.67;;;1.80;99.90;;;;;;2048648;28;20171;-79
2023/12/09 01:01:01;;;;;;;5.23;2.97;;;1.80;99.90;;;;;;2031469;28;20246;-80
2023/12/09 01:02:02;;;;;;;6.37;3.50;;;1.80;99.90;;;;;;2040994;28;20207;-78
2023/12/09 01:03:03;;;;;;;7.33;4.27;;;1.80;99.90;;;;;;2046425;29;20203;-78
2023/12/09 01:04:05;;;;;;;6.67;3.40;;;1.70;99.90;;;;;;2048226;28;20212;-79
2023/12/09 01:05:06;;;;;;;5.30;3.67;;;1.70;99.90;;;;;;2041135;29;20251;-80
2023/12/09 01:06:07;;;;;;;5.33;3.20;;;1.60;99.90;;;;;;2038794;28;20221;-78
2023/12/09 01:07:08;;;;;;;5.13;3.50;;;1.70;99.90;;;;;;2039002;28;20474;-78
2023/12/09 01:08:09;;;;;;;4.67;3.07;;;1.80;99.90;;;;;;2047197;28;20487;-79
2023/12/09 01:09:09;;;;;;;16.80;3.80;;;1.70;99.90;;;;;;2041827;28;20232;-79
2023/12/09 01:10:10;;;;;;;13.97;3.97;;;1.70;99.90;;;;;;2031862;29;20234;-78
2023/12/09 01:11:12;;;;;;;10.77;3.43;;;1.80;99.90;;;;;;2032548;28;20271;-84
2023/12/09 01:12:13;;;;;;;15.88;4.15;;;1.70;99.90;;;;;;2031959;28;20239;-79
2023/12/09 01:13:13;;;;;;;20.83;5.33;;;1.60;99.90;;;;;;2036922;29;20226;-80
2023/12/09 01:14:14;;;;;;;26.90;5.87;;;1.60;99.90;;;;;;2040015;28;20239;-78
2023/12/09 01:15:15;;;;;;;3.67;2.77;;;1.60;99.90;;;;;;2034077;29;20231;-79
2023/12/09 01:16:16;;;;;;;7.20;3.03;;;1.70;99.90;;;;;;2038833;29;20327;-79
2023/12/09 01:17:17;;;;;;;6.67;4.10;;;1.80;99.90;;;;;;2086087;28;20331;-79
2023/12/09 01:18:17;;;;;;;7.83;3.73;;;1.80;99.90;;;;;;2037999;28;20238;-79
2023/12/09 01:19:18;;;;;;;6.87;3.23;;;1.70;99.90;;;;;;2033515;29;20266;-78
2023/12/09 01:20:18;;;;;;;4.13;2.70;;;1.80;99.90;;;;;;2037792;29;20240;-80
2023/12/09 01:21:19;;;;;;;9.27;2.97;;;1.80;99.90;;;;;;2043638;28;20254;-80
2023/12/09 01:22:20;;;;;;;4.63;2.37;;;1.80;99.90;;;;;;2034760;28;20282;-81
2023/12/09 01:23:21;;;;;;;4.25;2.65;;;1.80;99.90;;;;;;2025745;28;20318;-80
2023/12/09 01:24:21;;;;;;;4.00;2.57;;;1.70;99.90;;;;;;2033829;29;20308;-81
2023/12/09 01:25:22;;;;;;;3.23;2.47;;;1.70;99.90;;;;;;2041459;29;20235;-80
2023/12/09 01:26:23;;;;;;;4.03;2.77;;;1.70;99.90;;;;;;2026812;28;20244;-81
2023/12/09 01:27:23;;;;;;;3.80;2.50;;;1.70;99.90;;;;;;2029386;28;20234;-80
2023/12/09 01:28:24;;;;;;;2.70;1.93;;;1.70;99.90;;;;;;2027195;29;20240;-79
2023/12/09 01:29:25;;;;;;;3.93;2.40;;;1.70;99.90;;;;;;2032938;29;20235;-81
2023/12/09 01:30:25;;;;;;;2.27;1.70;;;1.60;99.90;;;;;;2025685;29;20246;-80
2023/12/09 01:31:26;;;;;;;2.73;1.70;;;1.70;99.90;;;;;;2033902;29;20254;-81
2023/12/09 01:32:27;;;;;;;2.73;1.70;;;1.80;99.90;;;;;;2025324;29;20339;-80
2023/12/09 01:33:27;;;;;;;2.80;1.87;;;1.80;99.90;;;;;;2025146;29;20251;-81
2023/12/09 01:34:28;;;;;;;4.53;2.10;;;1.80;99.90;;;;;;2017543;29;20278;-81
2023/12/09 01:35:29;;;;;;;2.33;2.00;;;1.90;99.90;;;;;;2019334;29;20240;-80
2023/12/09 01:36:29;;;;;;;3.93;2.50;;;1.90;99.90;;;;;;2026189;28;20233;-80
2023/12/09 01:37:30;;;;;;;3.50;1.73;;;1.90;99.90;;;;;;2042387;28;20679;-80
2023/12/09 01:38:31;;;;;;;4.03;2.33;;;1.90;99.90;;;;;;2033353;29;20311;-81
2023/12/09 01:39:31;;;;;;;2.97;1.90;;;1.90;99.90;;;;;;2024333;29;20230;-81
2023/12/09 01:40:32;;;;;;;3.13;1.93;;;1.90;99.90;;;;;;2032538;29;20232;-80
2023/12/09 01:41:33;;;;;;;4.20;2.80;;;1.90;99.90;;;;;;2032557;29;20224;-80
2023/12/09 01:42:33;;;;;;;5.90;2.53;;;1.90;99.90;;;;;;2033001;29;20227;-80
2023/12/09 01:43:35;;;;;;;3.00;1.60;;;1.90;99.90;;;;;;2032937;29;20234;-80
2023/12/09 01:44:35;;;;;;;4.60;2.25;;;2.00;99.90;;;;;;2040666;29;20227;-81
2023/12/09 01:45:36;;;;;;;4.90;2.03;;;2.00;99.90;;;;;;2040670;28;20458;-80
2023/12/09 01:46:38;;;;;;;4.20;2.03;;;2.00;99.90;;;;;;2032657;28;20220;-80
2023/12/09 01:47:39;;;;;;;2.53;1.80;;;1.90;99.90;;;;;;2029645;29;20264;-80
2023/12/09 01:48:40;;;;;;;4.70;2.08;;;1.90;99.90;;;;;;2030828;29;20662;-80
2023/12/09 01:49:41;;;;;;;3.65;1.67;;;1.80;99.90;;;;;;2035351;29;20808;-80
2023/12/09 01:50:42;;;;;;;3.97;2.20;;;1.80;99.90;;;;;;2043052;29;20599;-80
2023/12/09 01:51:43;;;;;;;4.50;2.33;;;1.80;99.90;;;;;;2038674;29;20220;-80
2023/12/09 01:52:45;;;;;;;4.22;2.60;;;1.90;99.90;;;;;;2046000;29;20233;-79
2023/12/09 01:53:45;;;;;;;3.40;2.33;;;1.90;99.90;;;;;;2030510;29;20229;-80
2023/12/09 01:54:46;;;;;;;5.40;2.73;;;1.90;99.90;;;;;;2032628;29;20188;-81
2023/12/09 01:55:47;;;;;;;5.20;2.90;;;2.00;99.90;;;;;;2033279;29;20182;-81
2023/12/09 01:56:48;;;;;;;2.50;1.83;;;2.00;99.90;;;;;;2032872;29;20191;-81
2023/12/09 01:57:51;;;;;;;2.73;2.20;;;2.10;99.90;;;;;;2031651;29;20199;-79
2023/12/09 01:58:51;;;;;;;3.15;2.50;;;2.10;99.90;;;;;;2033335;28;20189;-80
2023/12/09 01:59:53;;;;;;;4.53;2.73;;;2.00;99.90;;;;;;2044912;28;20191;-81
2023/12/09 02:00:54;;;;;;;5.10;3.08;;;2.10;99.90;;;;;;2040346;29;20553;-81
2023/12/09 02:01:55;;;;;;;7.93;3.13;;;2.10;99.90;;;;;;2038948;28;20275;-81
2023/12/09 02:02:55;;;;;;;5.10;3.47;;;2.00;99.90;;;;;;2037362;28;20237;-81
2023/12/09 02:03:57;;;;;;;4.83;3.17;;;2.00;99.90;;;;;;2030277;28;20256;-80
2023/12/09 02:04:59;;;;;;;4.88;3.53;;;1.90;99.90;;;;;;2031872;29;20208;-80
2023/12/09 02:06:00;;;;;;;4.82;2.83;;;1.80;99.90;;;;;;2031775;29;20186;-80
2023/12/09 02:07:01;;;;;;;4.77;2.77;;;1.90;99.90;;;;;;2031981;29;20188;-80
2023/12/09 02:08:02;;;;;;;6.37;3.17;;;1.90;99.90;;;;;;2032098;28;20201;-80
2023/12/09 02:09:03;;;;;;;4.17;2.30;;;1.90;99.90;;;;;;2022656;28;20204;-80
2023/12/09 02:10:06;;;;;;;3.92;2.33;;;2.00;99.90;;;;;;2029134;29;20670;-80
2023/12/09 02:11:24;;;;;;;5.85;2.40;;;2.00;99.90;;;;;;2028514;29;20230;-79
2023/12/09 02:12:43;;;;;;;4.03;2.40;;;2.00;99.90;;;;;;2034366;28;20339;-80
2023/12/09 02:13:55;;;;;;;3.38;2.20;;;2.00;99.90;;;;;;2043452;28;20255;-79
2023/12/09 02:15:06;;;;;;;5.50;3.25;;;2.10;99.90;;;;;;2038746;29;20670;-79
2023/12/09 02:16:15;;;;;;;4.93;3.10;;;2.20;99.90;;;;;;2022082;28;20315;-79
2023/12/09 02:17:41;;;;;;;5.35;2.83;;;2.20;99.90;;;;;;2033416;28;20234;-79
2023/12/09 02:18:44;;;;;;;4.03;2.85;;;2.20;99.90;;;;;;2035968;29;20302;-80
2023/12/09 02:19:45;;;;;;;5.50;3.30;;;2.20;99.90;;;;;;2025222;28;20231;-78
2023/12/09 02:20:45;;;;;;;5.63;3.65;;;2.20;99.90;;;;;;2026011;28;20780;-79
2023/12/09 02:22:10;;;;;;;9.07;4.37;;;2.20;99.90;;;;;;2028355;29;20182;-80
2023/12/09 02:23:12;;;;;;;8.70;5.00;;;2.20;99.90;;;;;;2031484;29;20848;-80
2023/12/09 02:24:13;;;;;;;6.85;4.28;;;2.20;99.90;;;;;;2031912;28;20779;-79
2023/12/09 02:25:14;;;;;;;7.90;4.63;;;2.30;99.90;;;;;;2038606;28;20249;-80
2023/12/09 02:26:21;;;;;;;11.20;4.67;;;2.40;99.90;;;;;;2031050;28;20236;-80
2023/12/09 02:27:31;;;;;;;8.20;4.38;;;2.40;99.90;;;;;;2031038;28;20248;-80
2023/12/09 02:28:38;;;;;;;5.45;3.45;;;2.40;99.90;;;;;;2031506;28;20314;-80
2023/12/09 02:30:08;;;;;;;5.53;3.47;;;2.50;99.90;;;;;;2031015;29;20299;-80
2023/12/09 02:31:19;;;;;;;6.47;4.10;;;2.50;99.90;;;;;;2028668;29;20689;-80
2023/12/09 02:32:23;;;;;;;6.80;3.45;;;2.50;99.90;;;;;;2067087;28;20905;-80
2023/12/09 02:33:25;;;;;;;6.60;3.92;;;2.30;99.90;;;;;;2024024;28;20233;-80
2023/12/09 02:34:29;;;;;;;5.65;3.42;;;2.30;99.90;;;;;;2023148;28;20227;-80
2023/12/09 02:35:35;;;;;;;6.53;3.13;;;2.40;99.90;;;;;;2024034;28;20574;-80
2023/12/09 02:36:39;;;;;;;3.95;2.92;;;2.40;99.90;;;;;;2016291;28;20254;-80
2023/12/09 02:37:41;;;;;;;4.53;3.08;;;2.40;99.90;;;;;;2018494;28;20225;-80
2023/12/09 02:38:43;;;;;;;5.40;3.13;;;2.30;99.90;;;;;;2019935;28;20220;-81
2023/12/09 02:39:44;;;;;;;5.10;3.70;;;2.20;99.90;;;;;;2020426;28;20237;-80
2023/12/09 02:40:46;;;;;;;7.25;4.55;;;2.20;99.90;;;;;;2031008;28;20262;-80
2023/12/09 02:41:49;;;;;;;5.38;3.78;;;2.20;99.90;;;;;;2031225;28;20188;-80
2023/12/09 02:42:50;;;;;;;5.75;3.33;;;2.20;99.90;;;;;;2031523;28;20200;-80
2023/12/09 02:43:50;;;;;;;4.97;3.03;;;2.20;99.90;;;;;;2030508;29;20211;-81
2023/12/09 02:44:51;;;;;;;4.50;2.87;;;2.30;99.90;;;;;;2038594;29;20677;-80
2023/12/09 02:45:52;;;;;;;4.20;3.00;;;2.30;99.90;;;;;;2039090;28;20188;-80
2023/12/09 02:46:56;;;;;;;5.53;3.17;;;2.40;99.90;;;;;;2029426;28;21015;-80
2023/12/09 02:47:58;;;;;;;4.65;2.92;;;2.40;99.90;;;;;;2023206;28;20242;-80
2023/12/09 02:49:02;;;;;;;6.68;3.70;;;2.50;99.90;;;;;;2024686;29;20584;-80
2023/12/09 02:50:04;;;;;;;5.28;3.33;;;2.30;99.90;;;;;;2038803;29;20272;-80
2023/12/09 02:51:07;;;;;;;4.93;2.75;;;2.30;99.90;;;;;;2032853;29;20316;-80
2023/12/09 02:52:07;;;;;;;5.05;3.28;;;2.20;99.90;;;;;;2024258;28;20317;-79
2023/12/09 02:53:08;;;;;;;4.47;3.10;;;2.20;99.90;;;;;;2015138;28;20523;-80
2023/12/09 02:54:09;;;;;;;6.50;3.80;;;2.30;99.90;;;;;;2025824;29;20237;-81
2023/12/09 02:55:10;;;;;;;5.70;3.03;;;2.20;99.90;;;;;;2032269;29;20248;-81
2023/12/09 02:56:11;;;;;;;17.08;4.45;;;2.10;99.90;;;;;;2029488;29;20283;-80
2023/12/09 02:57:12;;;;;;;6.40;3.27;;;2.00;99.90;;;;;;2025261;28;20835;-80
2023/12/09 02:58:12;;;;;;;5.63;2.80;;;2.00;99.90;;;;;;2024228;28;20311;-79
2023/12/09 02:59:13;;;;;;;8.37;3.50;;;1.90;99.90;;;;;;2017434;29;20317;-79
2023/12/09 03:00:14;;;;;;;12.27;4.30;;;1.80;99.90;;;;;;2017561;29;20265;-80
2023/12/09 03:01:15;;;;;;;7.25;2.85;;;1.80;99.90;;;;;;2032651;29;20247;-79
2023/12/09 03:02:16;;;;;;;6.60;3.10;;;1.80;99.90;;;;;;2030738;29;20231;-80
2023/12/09 03:03:16;;;;;;;7.87;4.10;;;1.90;99.90;;;;;;2021729;28;20232;-79
2023/12/09 03:04:17;;;;;;;4.33;2.67;;;1.90;99.90;;;;;;2022821;29;20734;-79
2023/12/09 03:05:18;;;;;;;4.67;2.93;;;1.90;99.90;;;;;;2035186;29;20242;-79
2023/12/09 03:06:18;;;;;;;4.70;3.17;;;1.80;99.90;;;;;;2038568;28;20236;-79
2023/12/09 03:07:20;;;;;;;5.47;3.00;;;1.90;99.90;;;;;;2029673;29;20609;-80
2023/12/09 03:08:21;;;;;;;4.28;2.90;;;2.00;99.90;;;;;;2038650;29;20239;-79
2023/12/09 03:09:21;;;;;;;4.27;3.53;;;2.10;99.90;;;;;;2038144;29;20230;-80
2023/12/09 03:10:22;;;;;;;3.83;2.80;;;2.10;99.90;;;;;;2028218;29;20247;-80
2023/12/09 03:11:23;;;;;;;3.47;2.80;;;2.20;99.90;;;;;;2029928;28;20243;-80
2023/12/09 03:12:23;;;;;;;5.13;2.80;;;2.10;99.90;;;;;;2033000;29;20240;-79
2023/12/09 03:13:25;;;;;;;6.93;3.57;;;2.20;99.90;;;;;;2042243;28;20273;-79
2023/12/09 03:14:25;;;;;;;5.22;3.22;;;2.20;99.90;;;;;;2040493;29;20327;-79
2023/12/09 03:15:26;;;;;;;3.63;2.40;;;2.10;99.90;;;;;;2031623;28;20232;-80
2023/12/09 03:16:27;;;;;;;3.87;3.07;;;2.20;99.90;;;;;;2031482;28;20228;-81
2023/12/09 03:17:27;;;;;;;8.07;2.90;;;2.20;99.90;;;;;;2026676;29;20714;-80
2023/12/09 03:18:28;;;;;;;3.43;2.43;;;2.30;99.90;;;;;;2026377;29;20278;-80
2023/12/09 03:19:29;;;;;;;4.27;2.77;;;2.20;99.90;;;;;;2038673;29;20236;-80
2023/12/09 03:20:29;;;;;;;3.73;2.47;;;2.30;99.90;;;;;;2038852;29;20244;-80
2023/12/09 03:21:30;;;;;;;3.60;2.47;;;2.30;99.90;;;;;;2029884;29;20854;-80
2023/12/09 03:22:31;;;;;;;4.40;2.53;;;2.30;99.90;;;;;;2030743;29;20620;-80
2023/12/09 03:23:31;;;;;;;3.40;2.37;;;2.30;99.90;;;;;;2038662;29;20313;-80
2023/12/09 03:24:32;;;;;;;3.23;2.73;;;2.20;99.90;;;;;;2026877;28;20230;-80
2023/12/09 03:25:33;;;;;;;7.83;3.77;;;2.30;99.90;;;;;;2038550;29;20227;-80
2023/12/09 03:26:33;;;;;;;4.30;2.97;;;2.40;99.90;;;;;;2023494;28;20346;-81
2023/12/09 03:27:34;;;;;;;3.90;2.70;;;2.50;99.90;;;;;;2026677;28;20254;-80
2023/12/09 03:28:35;;;;;;;7.03;3.03;;;2.50;99.90;;;;;;2026085;28;20850;-80
2023/12/09 03:29:36;;;;;;;5.13;2.80;;;2.50;99.90;;;;;;2022839;28;20226;-79
2023/12/09 03:30:37;;;;;;;4.35;2.78;;;2.50;99.90;;;;;;2027853;28;20220;-80
2023/12/09 03:31:41;;;;;;;5.97;3.00;;;2.50;99.90;;;;;;2038676;28;20222;-80
2023/12/09 03:32:41;;;;;;;4.78;3.65;;;2.40;99.90;;;;;;2050411;28;20227;-80
2023/12/09 03:33:42;;;;;;;3.73;2.67;;;2.40;99.90;;;;;;2041922;28;20282;-80
2023/12/09 03:34:44;;;;;;;5.07;3.03;;;2.40;99.90;;;;;;2063335;28;20225;-80
2023/12/09 03:35:45;;;;;;;4.25;2.78;;;2.40;99.90;;;;;;2027426;28;20366;-78
2023/12/09 03:36:45;;;;;;;3.87;2.60;;;2.40;99.90;;;;;;2025303;28;20639;-79
2023/12/09 03:37:46;;;;;;;3.47;2.63;;;2.50;99.90;;;;;;2023426;29;20178;-80
2023/12/09 03:38:47;;;;;;;4.97;2.80;;;2.40;99.90;;;;;;2025294;29;20675;-80
2023/12/09 03:39:47;;;;;;;5.63;2.37;;;2.50;99.90;;;;;;2036217;28;20188;-80
2023/12/09 03:40:48;;;;;;;3.73;2.93;;;2.50;99.90;;;;;;2063322;28;20277;-80
2023/12/09 03:41:49;;;;;;;3.53;2.43;;;2.50;99.90;;;;;;2044782;28;20231;-79
2023/12/09 03:42:49;;;;;;;5.07;2.97;;;2.40;99.90;;;;;;2028065;28;20955;-79
2023/12/09 03:43:50;;;;;;;4.20;2.67;;;2.40;99.90;;;;;;2041740;28;20290;-79
2023/12/09 03:44:51;;;;;;;3.60;2.20;;;2.40;99.90;;;;;;2042632;28;20681;-79
2023/12/09 03:45:51;;;;;;;2.67;2.40;;;2.30;99.90;;;;;;2032596;28;20184;-80
2023/12/09 03:46:52;;;;;;;3.57;2.70;;;2.30;99.90;;;;;;2028463;28;20183;-80
2023/12/09 03:47:53;;;;;;;3.03;2.30;;;2.40;99.90;;;;;;2015950;28;20682;-79
2023/12/09 03:48:53;;;;;;;5.43;3.03;;;2.40;99.90;;;;;;2017317;29;20244;-80
2023/12/09 03:49:54;;;;;;;4.13;2.97;;;2.30;99.90;;;;;;2026031;28;20648;-79
2023/12/09 03:50:55;;;;;;;5.70;3.57;;;2.40;99.90;;;;;;2062866;28;20217;-79
2023/12/09 03:51:56;;;;;;;3.88;2.78;;;2.40;99.90;;;;;;2062436;28;20239;-80
2023/12/09 03:52:56;;;;;;;7.03;2.90;;;2.50;99.90;;;;;;2019529;28;20750;-80
2023/12/09 03:53:57;;;;;;;4.73;2.83;;;2.50;99.90;;;;;;2030657;29;20285;-78
2023/12/09 03:54:58;;;;;;;3.30;2.40;;;2.50;99.90;;;;;;2035958;28;20196;-78
2023/12/09 03:55:59;;;;;;;5.45;2.72;;;2.50;99.90;;;;;;2034538;28;20971;-79
2023/12/09 03:57:01;;;;;;;4.20;2.80;;;2.50;99.90;;;;;;2032774;28;20224;-79
2023/12/09 03:58:01;;;;;;;6.22;2.72;;;2.50;99.90;;;;;;2032048;29;20702;-80
2023/12/09 03:59:02;;;;;;;3.80;2.80;;;2.50;99.90;;;;;;2038678;28;20192;-80
2023/12/09 04:00:04;;;;;;;3.43;2.50;;;2.50;99.90;;;;;;2039651;28;20275;-80
2023/12/09 04:01:05;;;;;;;4.13;2.63;;;2.60;99.90;;;;;;2033887;28;20385;-79
2023/12/09 04:02:06;;;;;;;4.57;2.90;;;2.60;99.90;;;;;;2017892;28;20670;-79
2023/12/09 04:03:07;;;;;;;3.80;2.50;;;2.60;99.90;;;;;;2024483;29;20243;-79
2023/12/09 04:04:07;;;;;;;4.03;2.93;;;2.70;99.90;;;;;;2038370;29;20744;-79
2023/12/09 04:05:09;;;;;;;3.80;2.60;;;2.60;99.90;;;;;;2037941;29;20230;-80
2023/12/09 04:06:10;;;;;;;3.72;2.70;;;2.70;99.90;;;;;;2036990;28;20257;-79
2023/12/09 04:07:11;;;;;;;3.07;2.43;;;2.70;99.90;;;;;;2031102;29;20770;-80
2023/12/09 04:08:11;;;;;;;2.37;1.83;;;2.70;99.90;;;;;;2014698;29;20293;-80
2023/12/09 04:09:12;;;;;;;3.17;2.40;;;2.60;99.90;;;;;;2015133;29;20326;-79
2023/12/09 04:10:13;;;;;;;3.80;2.53;;;2.60;99.90;;;;;;2029115;29;20243;-79
2023/12/09 04:11:14;;;;;;;3.33;2.37;;;2.50;99.90;;;;;;2029043;29;20273;-79
2023/12/09 04:12:14;;;;;;;3.63;2.70;;;2.40;99.90;;;;;;2023918;28;20319;-80
2023/12/09 04:13:15;;;;;;;3.93;2.40;;;2.30;99.90;;;;;;2014499;28;20687;-80
2023/12/09 04:14:16;;;;;;;4.53;2.80;;;2.40;99.90;;;;;;2039302;28;20256;-80
2023/12/09 04:15:17;;;;;;;3.60;2.37;;;2.40;99.90;;;;;;2031039;29;20299;-80
2023/12/09 04:16:17;;;;;;;7.03;2.70;;;2.40;99.90;;;;;;2032344;29;20331;-78
2023/12/09 04:17:19;;;;;;;5.77;3.07;;;2.50;99.90;;;;;;2038110;29;20287;-79
2023/12/09 04:18:20;;;;;;;4.32;2.60;;;2.40;99.90;;;;;;2031243;29;20300;-79
2023/12/09 04:19:21;;;;;;;4.17;3.00;;;2.40;99.90;;;;;;2031142;28;20231;-80
2023/12/09 04:20:22;;;;;;;3.22;2.60;;;2.30;99.90;;;;;;2070831;28;20773;-79
2023/12/09 04:21:23;;;;;;;5.72;3.08;;;2.40;99.90;;;;;;2030547;29;20247;-80
2023/12/09 04:22:25;;;;;;;4.67;3.00;;;2.40;99.90;;;;;;2029947;29;20512;-79
2023/12/09 04:23:25;;;;;;;5.07;2.80;;;2.40;99.90;;;;;;2030815;29;20239;-79
2023/12/09 04:24:26;;;;;;;3.43;2.03;;;2.40;99.90;;;;;;2022789;29;20241;-80
2023/12/09 04:25:27;;;;;;;5.67;2.90;;;2.40;99.90;;;;;;2015884;29;20814;-79
2023/12/09 04:26:27;;;;;;;4.47;3.13;;;2.50;99.90;;;;;;2023399;29;20236;-80
2023/12/09 04:27:28;;;;;;;6.70;3.67;;;2.50;99.90;;;;;;2030474;29;20298;-79
2023/12/09 04:28:29;;;;;;;9.03;3.40;;;2.50;99.90;;;;;;2023100;29;20287;-79
2023/12/09 04:29:29;;;;;;;3.03;2.27;;;2.50;99.90;;;;;;2031161;29;20271;-80
2023/12/09 04:30:30;;;;;;;4.00;2.57;;;2.50;99.90;;;;;;2030502;29;20243;-79
2023/12/09 04:31:31;;;;;;;8.73;2.53;;;2.40;99.90;;;;;;2029216;29;20290;-80
2023/12/09 04:32:32;;;;;;;5.80;2.90;;;2.50;99.90;;;;;;2021430;29;20229;-79
2023/12/09 04:33:32;;;;;;;4.60;2.70;;;2.50;99.90;;;;;;2022780;29;20788;-79
2023/12/09 04:34:33;;;;;;;4.10;2.43;;;2.40;99.90;;;;;;2019906;28;20237;-80
2023/12/09 04:35:34;;;;;;;4.27;2.03;;;2.40;99.90;;;;;;2027175;29;20240;-80
2023/12/09 04:36:34;;;;;;;3.43;2.53;;;2.30;99.90;;;;;;2049566;28;20231;-79
2023/12/09 04:37:36;;;;;;;2.67;1.90;;;2.30;99.90;;;;;;2037417;29;20865;-79
2023/12/09 04:38:38;;;;;;;4.05;2.45;;;2.30;99.90;;;;;;2038488;29;20228;-80
2023/12/09 04:39:38;;;;;;;4.45;2.53;;;2.40;99.90;;;;;;2021861;28;20229;-80
2023/12/09 04:40:39;;;;;;;3.63;2.20;;;2.40;99.90;;;;;;2014492;28;20220;-80
2023/12/09 04:41:40;;;;;;;4.87;3.33;;;2.30;99.90;;;;;;2022239;28;20287;-79
2023/12/09 04:42:41;;;;;;;4.37;2.87;;;2.30;99.90;;;;;;2015212;29;20283;-80
2023/12/09 04:43:41;;;;;;;3.77;2.17;;;2.30;99.90;;;;;;2014846;28;20547;-79
2023/12/09 04:44:42;;;;;;;2.53;1.80;;;2.30;99.90;;;;;;2022973;28;20232;-79
2023/12/09 04:45:43;;;;;;;2.57;1.90;;;2.40;99.90;;;;;;2027005;28;20276;-79
2023/12/09 04:46:43;;;;;;;3.03;2.00;;;2.40;99.90;;;;;;2026352;29;20323;-79
2023/12/09 04:47:44;;;;;;;4.67;2.83;;;2.40;99.90;;;;;;2030241;29;20275;-79
2023/12/09 04:48:45;;;;;;;3.67;2.23;;;2.50;99.90;;;;;;2025554;29;20733;-79
2023/12/09 04:49:45;;;;;;;3.70;2.37;;;2.60;99.90;;;;;;2036820;29;20195;-80
2023/12/09 04:50:46;;;;;;;2.40;2.20;;;2.60;99.90;;;;;;2042007;29;20237;-79
2023/12/09 04:51:47;;;;;;;2.97;2.10;;;2.60;99.90;;;;;;2032944;29;20184;-79
2023/12/09 04:52:48;;;;;;;2.80;1.90;;;2.60;99.90;;;;;;2029124;29;20196;-79
2023/12/09 04:53:48;;;;;;;4.20;2.60;;;2.70;99.90;;;;;;2030035;29;20650;-80
2023/12/09 04:54:49;;;;;;;3.57;2.60;;;2.70;99.90;;;;;;2026718;29;20196;-79
2023/12/09 04:55:50;;;;;;;4.53;2.50;;;2.70;99.90;;;;;;2019304;29;20193;-79
2023/12/09 04:56:51;;;;;;;5.77;2.80;;;2.70;99.90;;;;;;2031965;29;20193;-79
2023/12/09 04:57:51;;;;;;;4.03;3.10;;;2.70;99.90;;;;;;2039051;29;20710;-82
2023/12/09 04:58:52;;;;;;;3.10;2.40;;;2.80;99.90;;;;;;2029249;28;20204;-80
2023/12/09 04:59:53;;;;;;;4.47;2.93;;;2.80;99.90;;;;;;2022453;29;20200;-79
2023/12/09 05:00:53;;;;;;;3.23;2.20;;;2.80;99.90;;;;;;2018413;29;20300;-80
2023/12/09 05:01:54;;;;;;;3.30;2.43;;;2.80;99.90;;;;;;2018510;28;20585;-80
2023/12/09 05:02:55;;;;;;;2.73;2.20;;;2.90;99.90;;;;;;2029740;29;20215;-80
2023/12/09 05:03:56;;;;;;;5.40;2.90;;;3.00;99.90;;;;;;2046020;29;20218;-80
2023/12/09 05:04:57;;;;;;;4.78;2.67;;;2.90;99.90;;;;;;2038010;29;20192;-79
2023/12/09 05:05:59;;;;;;;3.33;2.07;;;3.00;99.90;;;;;;2030094;28;20307;-80
2023/12/09 05:06:59;;;;;;;5.43;2.33;;;2.90;99.90;;;;;;2036193;28;20180;-80
2023/12/09 05:08:00;;;;;;;4.23;2.10;;;2.90;99.90;;;;;;2037616;29;20191;-79
2023/12/09 05:09:01;;;;;;;5.13;3.10;;;2.90;99.90;;;;;;2030045;28;20200;-79
2023/12/09 05:10:03;;;;;;;4.70;2.85;;;3.00;99.90;;;;;;2022095;29;20232;-80
2023/12/09 05:11:04;;;;;;;4.00;2.53;;;2.90;99.90;;;;;;2022745;28;20237;-80
2023/12/09 05:12:05;;;;;;;3.03;2.00;;;2.90;99.90;;;;;;2037272;29;20318;-80
2023/12/09 05:13:06;;;;;;;3.63;2.17;;;2.90;99.90;;;;;;2029622;29;20263;-80
2023/12/09 05:14:06;;;;;;;3.57;2.60;;;3.00;99.90;;;;;;2038050;29;20269;-78
2023/12/09 05:15:08;;;;;;;2.50;2.13;;;3.00;99.90;;;;;;2029801;28;20241;-80
2023/12/09 05:16:09;;;;;;;3.38;2.10;;;3.00;99.90;;;;;;2029860;28;20234;-80
2023/12/09 05:17:09;;;;;;;3.00;2.50;;;3.00;99.90;;;;;;2021872;28;20741;-80
2023/12/09 05:18:10;;;;;;;5.53;2.70;;;3.00;99.90;;;;;;2019226;28;20314;-78
2023/12/09 05:19:11;;;;;;;6.73;4.40;;;3.00;99.90;;;;;;2061834;28;20230;-79
2023/12/09 05:20:12;;;;;;;10.87;6.53;;;2.90;99.90;;;;;;2030579;29;20805;-79
2023/12/09 05:21:13;;;;;;;11.45;6.57;;;2.80;99.90;;;;;;2014832;28;20760;-79
2023/12/09 05:22:14;;;;;;;9.20;5.63;;;2.90;99.90;;;;;;2021653;29;20235;-79
2023/12/09 05:23:15;;;;;;;8.32;5.70;;;2.90;99.90;;;;;;2030375;29;20317;-79